Current | Forecast
Updated: 10:00 AM JST on October 18, 2017
Observed at Nakashibetsu, Japan
Temperature 39°F
Windchill 32°F
Humidity 93%
Dew Point 37°F
Wind WNW at 10 mph
Pressure 30.18 in (Rising)
Conditions Light Rain Showers
Visibility 6.2 miles
UV 2 out of 16
Clouds (FEW) : 400 ft
Scattered Clouds (SCT) : 1500 ft
Mostly Cloudy (BKN) : 2500 ft
Yesterday's Maximum 55°F
Yesterday's Minimum 43°F approx.
Yesterday's Heating Degree Days 16 approx.
Sunrise5:34 AM JST
Sunset4:30 PM JST
Moon Rise3:28 AM JST
Moon Set4:03 PM JST
Moon PhaseMoon Phase
Waning Crescent
Raw METARMETAR RJCN 180100Z 30009KT 9999 -SHRA FEW004 SCT015 BKN025 04/03 Q1022


Monday
. High: 55° F.
Tuesday
. High: 55° F.
Wednesday
. High: 59° F.
Thursday
. High: 57° F.
Friday
. High: 55° F.
Saturday
. High: 55° F.
Sunday
. High: 48° F.
Monday
. High: 53° F.

Units: English | Metric

Find the Weather for any City, State or Zipcode, or Country:

U.S. State List | Severe Weather | Tropical Storms | Ski Conditions
United States | Canada | Central America | South America | Asia | Europe | Australia | Africa | Islands

Weather Underground

© Copyright 2017
The Weather Company, LLC